Commodore Clipper — C6QQ3 — position and weather

sailwx.info

Track history (hours):
 
Tides and Currents Weather Stations Pressure Air Temp Water Temp Dewpoint Dewpoint Depression Visibility Wind Speed Wind Dir Waves Ship Positions

Commodore Clipper

Operator: Condor Marine Services

Last reported at 2017-Oct-20 14:55 UTC. Time now 2017-Oct-20 19:50 UTC.
Position N 49°29' W 002°20'.

Length 130 m; draft 5.2 m.

Type: Ship. MMSI: 308094000.

Date/timePositionNaut miles runAvg speedWind from/ knotsBaromVisibWave heightAir tempDewpointWater temp
2017-Oct-20 14:55N 49°29' W 002°20'6317.8
2017-Oct-20 11:23N 50°21' W 001°25'615.2
2017-Oct-20 10:59N 50°25' W 001°19'714.6
2017-Oct-20 10:30N 50°31' W 001°13'714.3
2017-Oct-20 10:00N 50°37' W 001°07'713.9
2017-Oct-20 09:30N 50°44' W 001°04'510.0
2017-Oct-20 09:00N 50°49' W 001°06'0 0.6
2017-Oct-20 08:31N 50°49' W 001°06'0 0.0
2017-Oct-20 08:01N 50°49' W 001°06'0 0.0
2017-Oct-20 07:30N 50°49' W 001°06'0 0.0
2017-Oct-20 07:01N 50°49' W 001°06'0 0.0
2017-Oct-20 06:30N 50°49' W 001°06'1 2.8
2017-Oct-20 06:01N 50°48' W 001°07'713.1
2017-Oct-20 05:31N 50°42' W 001°01'917.1
2017-Oct-20 05:00N 50°35' W 001°07'18 1.0
2017-Oct-19 10:22N 50°21' W 001°25'916.4
2017-Oct-19 09:50N 50°28' W 001°17'515.9
2017-Oct-19 09:30N 50°32' W 001°12'815.8
2017-Oct-19 09:00N 50°39' W 001°05'714.3
2017-Oct-19 08:30N 50°46' W 001°05'3 5.9
2017-Oct-19 08:00N 50°49' W 001°06'0 0.0
2017-Oct-19 07:30N 50°49' W 001°06'0 0.0
2017-Oct-19 07:00N 50°49' W 001°06'0 0.0
2017-Oct-19 06:30N 50°49' W 001°06'0 0.0
2017-Oct-19 06:00N 50°49' W 001°06'0 0.0
2017-Oct-19 05:30N 50°49' W 001°06'2 3.1
2017-Oct-19 05:01N 50°47' W 001°07'713.3
2017-Oct-19 04:30N 50°42' W 001°01'713.7
2017-Oct-19 04:00N 50°36' W 001°05'713.5
2017-Oct-19 03:31N 50°30' W 001°12'814.2
2017-Oct-19 02:56N 50°24' W 001°20'614.8
2017-Oct-19 02:31N 50°20' W 001°27'815.2
2017-Oct-19 02:00N 50°13' W 001°34'815.1
2017-Oct-19 01:30N 50°06' W 001°38'714.1
2017-Oct-19 01:00N 50°01' W 001°46'1013.9
2017-Oct-19 00:16N 49°54' W 001°57'414.1
2017-Oct-18 23:59N 49°51' W 002°01'1113.5
2017-Oct-18 23:12N 49°41' W 002°05'313.9
2017-Oct-18 22:57N 49°37' W 002°07'714.4
2017-Oct-18 22:30N 49°31' W 002°11'816.6
2017-Oct-18 22:00N 49°24' W 002°16'14 3.2
2017-Oct-18 17:42N 49°10' W 002°17'1916.2
2017-Oct-18 16:30N 49°27' W 002°31'0 0.3
2017-Oct-18 15:14N 49°27' W 002°32'0 0.0
2017-Oct-18 14:55N 49°27' W 002°32'2113.0
2017-Oct-18 13:16N 49°40' W 002°05'920.5
2017-Oct-18 12:51N 49°48' W 002°02'4818.9
2017-Oct-18 10:18N 50°27' W 001°18'517.7
2017-Oct-18 10:00N 50°32' W 001°13'917.6
2017-Oct-18 09:31N 50°39' W 001°05'714.5
2017-Oct-18 09:01N 50°46' W 001°05'3 5.1
2017-Oct-18 08:30N 50°49' W 001°06'0 0.0
2017-Oct-18 08:00N 50°49' W 001°06'0 0.0
2017-Oct-18 07:30N 50°49' W 001°06'0 0.0
2017-Oct-18 07:00N 50°49' W 001°06'0 0.0
2017-Oct-18 06:30N 50°49' W 001°06'0 0.0
2017-Oct-18 06:00N 50°49' W 001°06'0 0.0
2017-Oct-18 05:30N 50°49' W 001°06'2 3.2
2017-Oct-18 05:01N 50°47' W 001°07'612.7
2017-Oct-18 04:31N 50°42' W 001°01'815.3
2017-Oct-18 04:00N 50°35' W 001°06'814.6
2017-Oct-18 03:28N 50°29' W 001°13'85 4.1
2017-Oct-17 06:49N 49°11' W 002°07'0 0.0
2017-Oct-17 05:03N 49°11' W 002°07'0 1.5
2017-Oct-17 05:00N 49°11' W 002°07'612.1
2017-Oct-17 04:31N 49°10' W 002°16'815.8
2017-Oct-17 04:01N 49°17' W 002°23'12 5.5
2017-Oct-17 01:51N 49°27' W 002°31'310.0
2017-Oct-17 01:30N 49°26' W 002°26'916.5
2017-Oct-17 00:58N 49°32' W 002°15'1014.5
2017-Oct-17 00:18N 49°39' W 002°06'617.0
2017-Oct-16 23:58N 49°44' W 002°02'917.5
2017-Oct-16 23:28N 49°49' W 001°51'1018.9
2017-Oct-16 22:56N 49°53' W 001°36'818.5
2017-Oct-16 22:29N 49°55' W 001°24'1515.7
2017-Oct-16 21:33N 50°09' W 001°17'815.4
2017-Oct-16 21:03N 50°17' W 001°15'814.7
2017-Oct-16 20:33N 50°24' W 001°13'114.3
2017-Oct-16 20:29N 50°25' W 001°13'613.9
2017-Oct-16 20:01N 50°32' W 001°11'612.4
2017-Oct-16 19:31N 50°37' W 001°07'713.9
2017-Oct-16 19:01N 50°44' W 001°04'510.3
2017-Oct-16 18:31N 50°49' W 001°06'0 0.5
2017-Oct-16 18:00N 50°49' W 001°06'0 0.0
2017-Oct-16 17:31N 50°49' W 001°06'0 0.0
2017-Oct-16 17:00N 50°49' W 001°06'0 0.0
2017-Oct-16 16:31N 50°49' W 001°06'0 0.0
2017-Oct-16 16:00N 50°49' W 001°06'0 0.0
2017-Oct-16 15:31N 50°49' W 001°06'2 4.1
2017-Oct-16 15:01N 50°47' W 001°06'714.2
2017-Oct-16 14:31N 50°40' W 001°01'6814.9
2017-Oct-16 09:58N 49°45' W 002°02'613.0
2017-Oct-16 09:28N 49°40' W 002°07'1516.1
2017-Oct-16 08:33N 49°26' W 002°15'117.2
2017-Oct-16 08:30N 49°25' W 002°15'1217.1
2017-Oct-16 07:49N 49°14' W 002°21'10 7.5
2017-Oct-16 06:31N 49°11' W 002°07'0 0.3
2017-Oct-16 06:30N 49°11' W 002°07'0 0.0
2017-Oct-16 06:00N 49°11' W 002°07'0 0.0
2017-Oct-16 05:30N 49°11' W 002°07'0 0.1
2017-Oct-16 05:00N 49°11' W 002°07'4 9.0
2017-Oct-16 04:31N 49°10' W 002°14'714.4
2017-Oct-16 04:00N 49°15' W 002°22'816.1
2017-Oct-16 03:31N 49°22' W 002°27'611.0
2017-Oct-16 02:57N 49°27' W 002°32'0 0.0
2017-Oct-16 02:30N 49°27' W 002°32'0 0.0
2017-Oct-16 02:00N 49°27' W 002°32'4 7.7
2017-Oct-16 01:30N 49°26' W 002°26'714.8
2017-Oct-16 01:00N 49°31' W 002°17'510.7
2017-Oct-16 00:30N 49°34' W 002°10'611.6
2017-Oct-16 00:00N 49°39' W 002°06'813.2
2017-Oct-15 23:26N 49°46' W 002°01'612.2
2017-Oct-15 22:57N 49°51' W 001°56'611.7
2017-Oct-15 22:27N 49°56' W 001°51'3217.5
2017-Oct-15 20:38N 50°22' W 001°23'617.4
2017-Oct-15 20:18N 50°27' W 001°18'517.4
2017-Oct-15 20:00N 50°31' W 001°14'917.6
2017-Oct-15 19:30N 50°38' W 001°06'714.7
2017-Oct-15 19:00N 50°46' W 001°05'3 6.5
2017-Oct-15 18:30N 50°49' W 001°06'0 0.0
2017-Oct-15 18:00N 50°49' W 001°06'0 0.0
2017-Oct-15 17:30N 50°49' W 001°06'0 0.0
2017-Oct-15 17:01N 50°49' W 001°06'0 0.0
2017-Oct-15 16:30N 50°49' W 001°06'0 0.0
2017-Oct-15 16:01N 50°49' W 001°06'0 0.0
2017-Oct-15 15:31N 50°49' W 001°06'0 0.0
2017-Oct-15 15:00N 50°49' W 001°06'0 0.0
2017-Oct-15 14:00N 50°49' W 001°06'0 0.0
2017-Oct-15 13:31N 50°49' W 001°06'0 0.0
2017-Oct-15 13:01N 50°49' W 001°06'0 0.0
2017-Oct-15 12:30N 50°49' W 001°06'0 0.0
2017-Oct-15 12:00N 50°49' W 001°06'0 0.0
2017-Oct-15 11:30N 50°49' W 001°06'0 0.0
2017-Oct-15 11:00N 50°49' W 001°06'0 0.0
2017-Oct-15 10:30N 50°49' W 001°06'0 0.0
2017-Oct-15 10:00N 50°49' W 001°06'0 0.0
2017-Oct-15 09:31N 50°49' W 001°06'0 0.0
2017-Oct-15 09:01N 50°49' W 001°06'0 0.0
2017-Oct-15 08:31N 50°49' W 001°06'0 0.0
2017-Oct-15 08:00N 50°49' W 001°06'0 0.0
2017-Oct-15 07:30N 50°49' W 001°06'1 1.9
2017-Oct-15 07:01N 50°48' W 001°07'612.3
2017-Oct-15 06:31N 50°43' W 001°03'714.4
2017-Oct-15 06:01N 50°36' W 001°08'812.9
2017-Oct-15 05:21N 50°29' W 001°15'513.3
2017-Oct-15 05:00N 50°25' W 001°19'4414.3
2017-Oct-15 01:54N 49°48' W 001°58'1217.3
2017-Oct-15 01:13N 49°38' W 002°07'418.2
2017-Oct-15 01:00N 49°35' W 002°09'918.0
2017-Oct-15 00:30N 49°29' W 002°20'713.7
2017-Oct-15 00:00N 49°27' W 002°30'1 2.5
2017-Oct-14 23:30N 49°27' W 002°32'0 0.0
2017-Oct-14 23:01N 49°27' W 002°32'0 0.0
2017-Oct-14 22:30N 49°27' W 002°32'1 1.4
2017-Oct-14 21:37N 49°28' W 002°30'0 0.2
2017-Oct-14 21:28N 49°28' W 002°30'0 0.2
2017-Oct-14 21:01N 49°28' W 002°30'4 7.7
2017-Oct-14 20:30N 49°24' W 002°29'4 8.8
2017-Oct-14 20:01N 49°19' W 002°28'4 8.2
2017-Oct-14 19:30N 49°16' W 002°26'4 8.4
2017-Oct-14 19:00N 49°11' W 002°25'4 8.7
2017-Oct-14 18:30N 49°07' W 002°24'2 3.6
2017-Oct-14 18:01N 49°09' W 002°25'4 9.0
2017-Oct-14 17:31N 49°04' W 002°23'5 9.0
2017-Oct-14 17:00N 48°60' W 002°22'5 9.1
2017-Oct-14 16:30N 48°55' W 002°21'4 8.7
2017-Oct-14 15:59N 48°51' W 002°18'4 8.7
2017-Oct-14 15:30N 48°48' W 002°14'5 8.6
2017-Oct-14 14:58N 48°44' W 002°10'4 7.9
2017-Oct-14 14:29N 48°41' W 002°06'4 8.3
2017-Oct-14 14:01N 48°38' W 002°02'0 0.0
2017-Oct-14 11:02N 48°38' W 002°02'0 0.0
2017-Oct-14 10:53N 48°38' W 002°02'0 0.2
2017-Oct-14 10:22N 48°38' W 002°02'410.0
2017-Oct-14 10:00N 48°41' W 002°06'5 9.3
2017-Oct-14 09:29N 48°46' W 002°04'712.9
2017-Oct-14 08:57N 48°52' W 001°59'5 9.5
2017-Oct-14 08:27N 48°56' W 001°57'612.6
2017-Oct-14 08:00N 49°02' W 001°56'713.1
2017-Oct-14 07:30N 49°07' W 002°03'5 2.0
2017-Oct-14 05:06N 49°11' W 002°07'1 7.0
2017-Oct-14 05:01N 49°10' W 002°07'814.4
2017-Oct-14 04:29N 49°12' W 002°19'816.3
2017-Oct-14 04:01N 49°18' W 002°24'10 4.7
2017-Oct-14 01:52N 49°27' W 002°31'410.5
2017-Oct-14 01:30N 49°27' W 002°26'912.8
2017-Oct-14 00:50N 49°31' W 002°14'411.1
2017-Oct-14 00:30N 49°33' W 002°09'811.2
2017-Oct-13 23:46N 49°41' W 002°05'511.1
2017-Oct-13 23:21N 49°45' W 002°02'411.7
2017-Oct-13 23:01N 49°48' W 001°58'714.1
2017-Oct-13 22:31N 49°54' W 001°51'917.3
2017-Oct-13 22:00N 50°01' W 001°44'917.2
2017-Oct-13 21:30N 50°09' W 001°42'917.5
2017-Oct-13 21:00N 50°15' W 001°32'918.0
2017-Oct-13 20:29N 50°23' W 001°23'917.9
2017-Oct-13 20:00N 50°30' W 001°15'918.5
2017-Oct-13 19:30N 50°37' W 001°07'714.1
2017-Oct-13 19:01N 50°44' W 001°05'4 8.9
2017-Oct-13 18:30N 50°49' W 001°07'1 1.3
2017-Oct-13 18:01N 50°49' W 001°06'0 0.0
2017-Oct-13 17:31N 50°49' W 001°06'0 0.0
2017-Oct-13 17:01N 50°49' W 001°06'0 0.0
2017-Oct-13 16:31N 50°49' W 001°06'0 0.0
2017-Oct-13 16:01N 50°49' W 001°06'0 0.0
2017-Oct-13 15:31N 50°49' W 001°06'2 3.3
2017-Oct-13 15:01N 50°47' W 001°06'714.3
2017-Oct-13 14:30N 50°40' W 001°04'917.4
2017-Oct-13 14:00N 50°33' W 001°12'1413.5
2017-Oct-13 12:59N 50°21' W 001°23'612.5
2017-Oct-13 12:30N 50°16' W 001°28'815.5
2017-Oct-13 12:00N 50°10' W 001°34'918.4
2017-Oct-13 11:30N 50°02' W 001°42'918.3
2017-Oct-13 11:00N 49°55' W 001°51'918.3
2017-Oct-13 10:31N 49°47' W 001°59'918.0
2017-Oct-13 09:59N 49°39' W 002°06'817.1
2017-Oct-13 09:30N 49°31' W 002°11'916.7
2017-Oct-13 08:59N 49°23' W 002°16'816.5
2017-Oct-13 08:30N 49°16' W 002°21'10 3.2
2017-Oct-13 05:16N 49°11' W 002°07'3 9.9
2017-Oct-13 04:57N 49°10' W 002°12'28 6.0
2017-Oct-13 00:22N 49°37' W 002°08'5914.2
2017-Oct-12 20:15N 50°26' W 001°18'418.2
2017-Oct-12 20:01N 50°30' W 001°14'918.6
2017-Oct-12 19:31N 50°38' W 001°06'815.3
2017-Oct-12 19:00N 50°45' W 001°05'3 6.7
2017-Oct-12 18:30N 50°49' W 001°06'0 0.0
2017-Oct-12 18:00N 50°49' W 001°06'0 0.0
2017-Oct-12 17:30N 50°49' W 001°06'0 0.0
2017-Oct-12 17:00N 50°49' W 001°06'0 0.0
2017-Oct-12 16:31N 50°49' W 001°06'0 0.0
2017-Oct-12 16:00N 50°49' W 001°06'0 0.3
2017-Oct-12 15:30N 50°49' W 001°06'4 7.9
2017-Oct-12 15:00N 50°45' W 001°05'714.9
2017-Oct-12 14:30N 50°37' W 001°07'1018.6
2017-Oct-12 13:59N 50°29' W 001°15'4618.9
2017-Oct-12 11:34N 49°51' W 001°55'220.1
2017-Oct-12 11:27N 49°49' W 001°57'1820.9
2017-Oct-12 10:36N 49°34' W 002°10'719.0
2017-Oct-12 10:14N 49°27' W 002°14'418.9
2017-Oct-12 10:00N 49°23' W 002°16'918.0
2017-Oct-12 09:30N 49°15' W 002°21'714.6
2017-Oct-12 09:00N 49°10' W 002°13'4 1.8
2017-Oct-12 06:57N 49°11' W 002°07'77 8.5
2017-Oct-11 21:54N 50°22' W 001°20'615.0
2017-Oct-11 21:30N 50°27' W 001°15'815.2
2017-Oct-11 21:01N 50°33' W 001°08'816.0
2017-Oct-11 20:30N 50°39' W 001°01'714.8
2017-Oct-11 20:01N 50°46' W 001°05'3 5.1
2017-Oct-11 19:30N 50°49' W 001°06'0 0.0
2017-Oct-11 19:00N 50°49' W 001°06'0 0.0
2017-Oct-11 18:30N 50°49' W 001°06'0 0.0
2017-Oct-11 18:00N 50°49' W 001°06'0 0.0
2017-Oct-11 17:30N 50°49' W 001°06'0 0.0
2017-Oct-11 17:00N 50°49' W 001°06'28 1.4
2017-Oct-10 21:06N 50°22' W 001°21'215.2
2017-Oct-10 21:00N 50°23' W 001°19'815.3
2017-Oct-10 20:31N 50°29' W 001°12'815.7
2017-Oct-10 20:01N 50°36' W 001°05'714.9
2017-Oct-10 19:31N 50°43' W 001°01'713.1
2017-Oct-10 19:01N 50°48' W 001°07'1 1.8
2017-Oct-10 18:30N 50°49' W 001°06'0 0.0
2017-Oct-10 18:00N 50°49' W 001°06'0 0.0
2017-Oct-10 17:30N 50°49' W 001°06'0 0.0
2017-Oct-10 17:01N 50°49' W 001°06'0 0.0
2017-Oct-10 16:30N 50°49' W 001°06'0 0.0
2017-Oct-10 16:01N 50°49' W 001°06'0 0.0
2017-Oct-10 15:30N 50°49' W 001°06'0 0.0
2017-Oct-10 15:01N 50°49' W 001°06'  
Track history (hours):
 
Tides and Currents Weather Stations Pressure Air Temp Water Temp Dewpoint Dewpoint Depression Visibility Wind Speed Wind Dir Waves Ship Positions

Commodore Clipper

Operator: Condor Marine Services

Last reported at 2017-Oct-20 14:55 UTC. Time now 2017-Oct-20 19:50 UTC.
Position N 49°29' W 002°20'.

Length 130 m; draft 5.2 m.

Type: Ship. MMSI: 308094000.

Date/timePositionNaut miles runAvg speedWind from/ knotsBaromVisibWave heightAir tempDewpointWater temp
2017-Oct-20 14:55N 49°29' W 002°20'6317.8
2017-Oct-20 11:23N 50°21' W 001°25'615.2
2017-Oct-20 10:59N 50°25' W 001°19'714.6
2017-Oct-20 10:30N 50°31' W 001°13'714.3
2017-Oct-20 10:00N 50°37' W 001°07'713.9
2017-Oct-20 09:30N 50°44' W 001°04'510.0
2017-Oct-20 09:00N 50°49' W 001°06'0 0.6
2017-Oct-20 08:31N 50°49' W 001°06'0 0.0
2017-Oct-20 08:01N 50°49' W 001°06'0 0.0
2017-Oct-20 07:30N 50°49' W 001°06'0 0.0
2017-Oct-20 07:01N 50°49' W 001°06'0 0.0
2017-Oct-20 06:30N 50°49' W 001°06'1 2.8
2017-Oct-20 06:01N 50°48' W 001°07'713.1
2017-Oct-20 05:31N 50°42' W 001°01'917.1
2017-Oct-20 05:00N 50°35' W 001°07'18 1.0
2017-Oct-19 10:22N 50°21' W 001°25'916.4
2017-Oct-19 09:50N 50°28' W 001°17'515.9
2017-Oct-19 09:30N 50°32' W 001°12'815.8
2017-Oct-19 09:00N 50°39' W 001°05'714.3
2017-Oct-19 08:30N 50°46' W 001°05'3 5.9
2017-Oct-19 08:00N 50°49' W 001°06'0 0.0
2017-Oct-19 07:30N 50°49' W 001°06'0 0.0
2017-Oct-19 07:00N 50°49' W 001°06'0 0.0
2017-Oct-19 06:30N 50°49' W 001°06'0 0.0
2017-Oct-19 06:00N 50°49' W 001°06'0 0.0
2017-Oct-19 05:30N 50°49' W 001°06'2 3.1
2017-Oct-19 05:01N 50°47' W 001°07'713.3
2017-Oct-19 04:30N 50°42' W 001°01'713.7
2017-Oct-19 04:00N 50°36' W 001°05'713.5
2017-Oct-19 03:31N 50°30' W 001°12'814.2
2017-Oct-19 02:56N 50°24' W 001°20'614.8
2017-Oct-19 02:31N 50°20' W 001°27'815.2
2017-Oct-19 02:00N 50°13' W 001°34'815.1
2017-Oct-19 01:30N 50°06' W 001°38'714.1
2017-Oct-19 01:00N 50°01' W 001°46'1013.9
2017-Oct-19 00:16N 49°54' W 001°57'414.1
2017-Oct-18 23:59N 49°51' W 002°01'1113.5
2017-Oct-18 23:12N 49°41' W 002°05'313.9
2017-Oct-18 22:57N 49°37' W 002°07'714.4
2017-Oct-18 22:30N 49°31' W 002°11'816.6
2017-Oct-18 22:00N 49°24' W 002°16'14 3.2
2017-Oct-18 17:42N 49°10' W 002°17'1916.2
2017-Oct-18 16:30N 49°27' W 002°31'0 0.3
2017-Oct-18 15:14N 49°27' W 002°32'0 0.0
2017-Oct-18 14:55N 49°27' W 002°32'2113.0
2017-Oct-18 13:16N 49°40' W 002°05'920.5
2017-Oct-18 12:51N 49°48' W 002°02'4818.9
2017-Oct-18 10:18N 50°27' W 001°18'517.7
2017-Oct-18 10:00N 50°32' W 001°13'917.6
2017-Oct-18 09:31N 50°39' W 001°05'714.5
2017-Oct-18 09:01N 50°46' W 001°05'3 5.1
2017-Oct-18 08:30N 50°49' W 001°06'0 0.0
2017-Oct-18 08:00N 50°49' W 001°06'0 0.0
2017-Oct-18 07:30N 50°49' W 001°06'0 0.0
2017-Oct-18 07:00N 50°49' W 001°06'0 0.0
2017-Oct-18 06:30N 50°49' W 001°06'0 0.0
2017-Oct-18 06:00N 50°49' W 001°06'0 0.0
2017-Oct-18 05:30N 50°49' W 001°06'2 3.2
2017-Oct-18 05:01N 50°47' W 001°07'612.7
2017-Oct-18 04:31N 50°42' W 001°01'815.3
2017-Oct-18 04:00N 50°35' W 001°06'814.6
2017-Oct-18 03:28N 50°29' W 001°13'85 4.1
2017-Oct-17 06:49N 49°11' W 002°07'0 0.0
2017-Oct-17 05:03N 49°11' W 002°07'0 1.5
2017-Oct-17 05:00N 49°11' W 002°07'612.1
2017-Oct-17 04:31N 49°10' W 002°16'815.8
2017-Oct-17 04:01N 49°17' W 002°23'12 5.5
2017-Oct-17 01:51N 49°27' W 002°31'310.0
2017-Oct-17 01:30N 49°26' W 002°26'916.5
2017-Oct-17 00:58N 49°32' W 002°15'1014.5
2017-Oct-17 00:18N 49°39' W 002°06'617.0
2017-Oct-16 23:58N 49°44' W 002°02'917.5
2017-Oct-16 23:28N 49°49' W 001°51'1018.9
2017-Oct-16 22:56N 49°53' W 001°36'818.5
2017-Oct-16 22:29N 49°55' W 001°24'1515.7
2017-Oct-16 21:33N 50°09' W 001°17'815.4
2017-Oct-16 21:03N 50°17' W 001°15'814.7
2017-Oct-16 20:33N 50°24' W 001°13'114.3
2017-Oct-16 20:29N 50°25' W 001°13'613.9
2017-Oct-16 20:01N 50°32' W 001°11'612.4
2017-Oct-16 19:31N 50°37' W 001°07'713.9
2017-Oct-16 19:01N 50°44' W 001°04'510.3
2017-Oct-16 18:31N 50°49' W 001°06'0 0.5
2017-Oct-16 18:00N 50°49' W 001°06'0 0.0
2017-Oct-16 17:31N 50°49' W 001°06'0 0.0
2017-Oct-16 17:00N 50°49' W 001°06'0 0.0
2017-Oct-16 16:31N 50°49' W 001°06'0 0.0
2017-Oct-16 16:00N 50°49' W 001°06'0 0.0
2017-Oct-16 15:31N 50°49' W 001°06'2 4.1
2017-Oct-16 15:01N 50°47' W 001°06'714.2
2017-Oct-16 14:31N 50°40' W 001°01'6814.9
2017-Oct-16 09:58N 49°45' W 002°02'613.0
2017-Oct-16 09:28N 49°40' W 002°07'1516.1
2017-Oct-16 08:33N 49°26' W 002°15'117.2
2017-Oct-16 08:30N 49°25' W 002°15'1217.1
2017-Oct-16 07:49N 49°14' W 002°21'10 7.5
2017-Oct-16 06:31N 49°11' W 002°07'0 0.3
2017-Oct-16 06:30N 49°11' W 002°07'0 0.0
2017-Oct-16 06:00N 49°11' W 002°07'0 0.0
2017-Oct-16 05:30N 49°11' W 002°07'0 0.1
2017-Oct-16 05:00N 49°11' W 002°07'4 9.0
2017-Oct-16 04:31N 49°10' W 002°14'714.4
2017-Oct-16 04:00N 49°15' W 002°22'816.1
2017-Oct-16 03:31N 49°22' W 002°27'611.0
2017-Oct-16 02:57N 49°27' W 002°32'0 0.0
2017-Oct-16 02:30N 49°27' W 002°32'0 0.0
2017-Oct-16 02:00N 49°27' W 002°32'4 7.7
2017-Oct-16 01:30N 49°26' W 002°26'714.8
2017-Oct-16 01:00N 49°31' W 002°17'510.7
2017-Oct-16 00:30N 49°34' W 002°10'611.6
2017-Oct-16 00:00N 49°39' W 002°06'813.2
2017-Oct-15 23:26N 49°46' W 002°01'612.2
2017-Oct-15 22:57N 49°51' W 001°56'611.7
2017-Oct-15 22:27N 49°56' W 001°51'3217.5
2017-Oct-15 20:38N 50°22' W 001°23'617.4
2017-Oct-15 20:18N 50°27' W 001°18'517.4
2017-Oct-15 20:00N 50°31' W 001°14'917.6
2017-Oct-15 19:30N 50°38' W 001°06'714.7
2017-Oct-15 19:00N 50°46' W 001°05'3 6.5
2017-Oct-15 18:30N 50°49' W 001°06'0 0.0
2017-Oct-15 18:00N 50°49' W 001°06'0 0.0
2017-Oct-15 17:30N 50°49' W 001°06'0 0.0
2017-Oct-15 17:01N 50°49' W 001°06'0 0.0
2017-Oct-15 16:30N 50°49' W 001°06'0 0.0
2017-Oct-15 16:01N 50°49' W 001°06'0 0.0
2017-Oct-15 15:31N 50°49' W 001°06'0 0.0
2017-Oct-15 15:00N 50°49' W 001°06'0 0.0
2017-Oct-15 14:00N 50°49' W 001°06'0 0.0
2017-Oct-15 13:31N 50°49' W 001°06'0 0.0
2017-Oct-15 13:01N 50°49' W 001°06'0 0.0
2017-Oct-15 12:30N 50°49' W 001°06'0 0.0
2017-Oct-15 12:00N 50°49' W 001°06'0 0.0
2017-Oct-15 11:30N 50°49' W 001°06'0 0.0
2017-Oct-15 11:00N 50°49' W 001°06'0 0.0
2017-Oct-15 10:30N 50°49' W 001°06'0 0.0
2017-Oct-15 10:00N 50°49' W 001°06'0 0.0
2017-Oct-15 09:31N 50°49' W 001°06'0 0.0
2017-Oct-15 09:01N 50°49' W 001°06'0 0.0
2017-Oct-15 08:31N 50°49' W 001°06'0 0.0
2017-Oct-15 08:00N 50°49' W 001°06'0 0.0
2017-Oct-15 07:30N 50°49' W 001°06'1 1.9
2017-Oct-15 07:01N 50°48' W 001°07'612.3
2017-Oct-15 06:31N 50°43' W 001°03'714.4
2017-Oct-15 06:01N 50°36' W 001°08'812.9
2017-Oct-15 05:21N 50°29' W 001°15'513.3
2017-Oct-15 05:00N 50°25' W 001°19'4414.3
2017-Oct-15 01:54N 49°48' W 001°58'1217.3
2017-Oct-15 01:13N 49°38' W 002°07'418.2
2017-Oct-15 01:00N 49°35' W 002°09'918.0
2017-Oct-15 00:30N 49°29' W 002°20'713.7
2017-Oct-15 00:00N 49°27' W 002°30'1 2.5
2017-Oct-14 23:30N 49°27' W 002°32'0 0.0
2017-Oct-14 23:01N 49°27' W 002°32'0 0.0
2017-Oct-14 22:30N 49°27' W 002°32'1 1.4
2017-Oct-14 21:37N 49°28' W 002°30'0 0.2
2017-Oct-14 21:28N 49°28' W 002°30'0 0.2
2017-Oct-14 21:01N 49°28' W 002°30'4 7.7
2017-Oct-14 20:30N 49°24' W 002°29'4 8.8
2017-Oct-14 20:01N 49°19' W 002°28'4 8.2
2017-Oct-14 19:30N 49°16' W 002°26'4 8.4
2017-Oct-14 19:00N 49°11' W 002°25'4 8.7
2017-Oct-14 18:30N 49°07' W 002°24'2 3.6
2017-Oct-14 18:01N 49°09' W 002°25'4 9.0
2017-Oct-14 17:31N 49°04' W 002°23'5 9.0
2017-Oct-14 17:00N 48°60' W 002°22'5 9.1
2017-Oct-14 16:30N 48°55' W 002°21'4 8.7
2017-Oct-14 15:59N 48°51' W 002°18'4 8.7
2017-Oct-14 15:30N 48°48' W 002°14'5 8.6
2017-Oct-14 14:58N 48°44' W 002°10'4 7.9
2017-Oct-14 14:29N 48°41' W 002°06'4 8.3
2017-Oct-14 14:01N 48°38' W 002°02'0 0.0
2017-Oct-14 11:02N 48°38' W 002°02'0 0.0
2017-Oct-14 10:53N 48°38' W 002°02'0 0.2
2017-Oct-14 10:22N 48°38' W 002°02'410.0
2017-Oct-14 10:00N 48°41' W 002°06'5 9.3
2017-Oct-14 09:29N 48°46' W 002°04'712.9
2017-Oct-14 08:57N 48°52' W 001°59'5 9.5
2017-Oct-14 08:27N 48°56' W 001°57'612.6
2017-Oct-14 08:00N 49°02' W 001°56'713.1
2017-Oct-14 07:30N 49°07' W 002°03'5 2.0
2017-Oct-14 05:06N 49°11' W 002°07'1 7.0
2017-Oct-14 05:01N 49°10' W 002°07'814.4
2017-Oct-14 04:29N 49°12' W 002°19'816.3
2017-Oct-14 04:01N 49°18' W 002°24'10 4.7
2017-Oct-14 01:52N 49°27' W 002°31'410.5
2017-Oct-14 01:30N 49°27' W 002°26'912.8
2017-Oct-14 00:50N 49°31' W 002°14'411.1
2017-Oct-14 00:30N 49°33' W 002°09'811.2
2017-Oct-13 23:46N 49°41' W 002°05'511.1
2017-Oct-13 23:21N 49°45' W 002°02'411.7
2017-Oct-13 23:01N 49°48' W 001°58'714.1
2017-Oct-13 22:31N 49°54' W 001°51'917.3
2017-Oct-13 22:00N 50°01' W 001°44'917.2
2017-Oct-13 21:30N 50°09' W 001°42'917.5
2017-Oct-13 21:00N 50°15' W 001°32'918.0
2017-Oct-13 20:29N 50°23' W 001°23'917.9
2017-Oct-13 20:00N 50°30' W 001°15'918.5
2017-Oct-13 19:30N 50°37' W 001°07'714.1
2017-Oct-13 19:01N 50°44' W 001°05'4 8.9
2017-Oct-13 18:30N 50°49' W 001°07'1 1.3
2017-Oct-13 18:01N 50°49' W 001°06'0 0.0
2017-Oct-13 17:31N 50°49' W 001°06'0 0.0
2017-Oct-13 17:01N 50°49' W 001°06'0 0.0
2017-Oct-13 16:31N 50°49' W 001°06'0 0.0
2017-Oct-13 16:01N 50°49' W 001°06'0 0.0
2017-Oct-13 15:31N 50°49' W 001°06'2 3.3
2017-Oct-13 15:01N 50°47' W 001°06'714.3
2017-Oct-13 14:30N 50°40' W 001°04'917.4
2017-Oct-13 14:00N 50°33' W 001°12'1413.5
2017-Oct-13 12:59N 50°21' W 001°23'612.5
2017-Oct-13 12:30N 50°16' W 001°28'815.5
2017-Oct-13 12:00N 50°10' W 001°34'918.4
2017-Oct-13 11:30N 50°02' W 001°42'918.3
2017-Oct-13 11:00N 49°55' W 001°51'918.3
2017-Oct-13 10:31N 49°47' W 001°59'918.0
2017-Oct-13 09:59N 49°39' W 002°06'817.1
2017-Oct-13 09:30N 49°31' W 002°11'916.7
2017-Oct-13 08:59N 49°23' W 002°16'816.5
2017-Oct-13 08:30N 49°16' W 002°21'10 3.2
2017-Oct-13 05:16N 49°11' W 002°07'3 9.9
2017-Oct-13 04:57N 49°10' W 002°12'28 6.0
2017-Oct-13 00:22N 49°37' W 002°08'5914.2
2017-Oct-12 20:15N 50°26' W 001°18'418.2
2017-Oct-12 20:01N 50°30' W 001°14'918.6
2017-Oct-12 19:31N 50°38' W 001°06'815.3
2017-Oct-12 19:00N 50°45' W 001°05'3 6.7
2017-Oct-12 18:30N 50°49' W 001°06'0 0.0
2017-Oct-12 18:00N 50°49' W 001°06'0 0.0
2017-Oct-12 17:30N 50°49' W 001°06'0 0.0
2017-Oct-12 17:00N 50°49' W 001°06'0 0.0
2017-Oct-12 16:31N 50°49' W 001°06'0 0.0
2017-Oct-12 16:00N 50°49' W 001°06'0 0.3
2017-Oct-12 15:30N 50°49' W 001°06'4 7.9
2017-Oct-12 15:00N 50°45' W 001°05'714.9
2017-Oct-12 14:30N 50°37' W 001°07'1018.6
2017-Oct-12 13:59N 50°29' W 001°15'4618.9
2017-Oct-12 11:34N 49°51' W 001°55'220.1
2017-Oct-12 11:27N 49°49' W 001°57'1820.9
2017-Oct-12 10:36N 49°34' W 002°10'719.0
2017-Oct-12 10:14N 49°27' W 002°14'418.9
2017-Oct-12 10:00N 49°23' W 002°16'918.0
2017-Oct-12 09:30N 49°15' W 002°21'714.6
2017-Oct-12 09:00N 49°10' W 002°13'4 1.8
2017-Oct-12 06:57N 49°11' W 002°07'77 8.5
2017-Oct-11 21:54N 50°22' W 001°20'615.0
2017-Oct-11 21:30N 50°27' W 001°15'815.2
2017-Oct-11 21:01N 50°33' W 001°08'816.0
2017-Oct-11 20:30N 50°39' W 001°01'714.8
2017-Oct-11 20:01N 50°46' W 001°05'3 5.1
2017-Oct-11 19:30N 50°49' W 001°06'0 0.0
2017-Oct-11 19:00N 50°49' W 001°06'0 0.0
2017-Oct-11 18:30N 50°49' W 001°06'0 0.0
2017-Oct-11 18:00N 50°49' W 001°06'0 0.0
2017-Oct-11 17:30N 50°49' W 001°06'0 0.0
2017-Oct-11 17:00N 50°49' W 001°06'28 1.4
2017-Oct-10 21:06N 50°22' W 001°21'215.2
2017-Oct-10 21:00N 50°23' W 001°19'815.3
2017-Oct-10 20:31N 50°29' W 001°12'815.7
2017-Oct-10 20:01N 50°36' W 001°05'714.9
2017-Oct-10 19:31N 50°43' W 001°01'713.1
2017-Oct-10 19:01N 50°48' W 001°07'1 1.8
2017-Oct-10 18:30N 50°49' W 001°06'0 0.0
2017-Oct-10 18:00N 50°49' W 001°06'0 0.0
2017-Oct-10 17:30N 50°49' W 001°06'0 0.0
2017-Oct-10 17:01N 50°49' W 001°06'0 0.0
2017-Oct-10 16:30N 50°49' W 001°06'0 0.0
2017-Oct-10 16:01N 50°49' W 001°06'0 0.0
2017-Oct-10 15:30N 50°49' W 001°06'0 0.0
2017-Oct-10 15:01N 50°49' W 001°06'  

Dump ship's entire track history